PORT of POINTE NOIRE

Country: Congo Country: Congo [CG]
Latitude / Longitude: -4.782° / 11.8285° Show on Map
Local Time:  [UTC +1]
UN/LOCODE: CGPNR
Expected Arrivals: 19

Vessels in Port


No Records Found

Recent Arrivals & Departures


Vessel Name
Arrival (UTC)
Arrival (LT)
Departure (UTC)
Departure (LT)
SEABULK AFRICA 2014-08-28 12:00:00 2014-08-28 13:00:00 2014-08-29 21:35:00 2014-08-29 22:35:00
Vessel Type: Yachts & Others  BOURBON LIBERTY 215 2014-08-28 06:21:00 2014-08-28 07:21:00 2014-08-29 21:34:00 2014-08-29 22:34:00
Vessel Type: Cargo Vessels  AL HARTHY TIDE 2014-08-29 12:49:00 2014-08-29 13:49:00 2014-08-29 19:03:00 2014-08-29 20:03:00
SURFER 1807 2014-08-29 11:10:00 2014-08-29 12:10:00 2014-08-29 18:29:00 2014-08-29 19:29:00
OOC JAGUAR 2014-08-27 18:23:00 2014-08-27 19:23:00 2014-08-29 18:25:00 2014-08-29 19:25:00
Vessel Type: Tugs, Pilots etc  DUTCH BLUE 2014-08-29 18:25:00 2014-08-29 19:25:00
Vessel Type: Passenger Vessels  MAMOLINO2O54 2014-08-29 18:08:00 2014-08-29 19:08:00
Vessel Type: Tugs, Pilots etc  PETRO CRAFT 1605-5 2014-08-29 16:44:00 2014-08-29 17:44:00 2014-08-29 17:55:00 2014-08-29 18:55:00
Vessel Type: Yachts & Others  BOURBON BORA 2014-08-29 17:09:00 2014-08-29 18:09:00
Vessel Type: Passenger Vessels  MAMOLINO 2068 2014-08-29 16:55:00 2014-08-29 17:55:00

Expected Arrivals


Vessel Name
Scheduled Arrival (UTC)
Scheduled Arrival (LT)
Estimated Arrival (UTC)
Estimated Arrival (LT)
Vessel Type: Cargo Vessels  GLOVIS SUMMIT 2014-08-28 03:00:00 2014-08-28 04:00:00
Vessel Type: Cargo Vessels  GREAT REWARD 2014-08-28 10:00:00 2014-08-28 11:00:00
SEABULK AFRICA 2014-08-28 17:00:00 2014-08-28 18:00:00 2014-08-28 11:58:00 2014-08-28 12:58:00
STRAUSS 2014-08-28 18:00:00 2014-08-28 19:00:00 2014-08-28 18:20:00 2014-08-28 19:20:00
EMS TRADER 2014-08-29 07:00:00 2014-08-29 08:00:00 2014-08-29 07:17:00 2014-08-29 08:17:00
Vessel Type: Cargo Vessels  CHRISTA SCHULTE 2014-08-29 07:00:00 2014-08-29 08:00:00 2014-08-29 05:49:00 2014-08-29 06:49:00
Vessel Type: Cargo Vessels  MELINDA 2014-08-29 09:00:00 2014-08-29 10:00:00 2014-08-29 03:55:00 2014-08-29 04:55:00
Vessel Type: Cargo Vessels  MAERSK CAPE TOWN 2014-08-29 17:00:00 2014-08-29 18:00:00 2014-08-30 03:58:00 2014-08-30 04:58:00
Vessel Type: Cargo Vessels  KOTA MATADI 2014-08-30 02:00:00 2014-08-30 03:00:00 2014-08-30 05:16:00 2014-08-30 06:16:00
Vessel Type: Tugs, Pilots etc  MENENDEZ TIDE 2014-08-30 07:00:00 2014-08-30 08:00:00 2014-09-03 15:39:00 2014-09-03 16:39:00

Wind Forecast


    
Time (UTC)
Speed
Direction
Temperature
2014-08-29 21:00:00 8 knots 202° 23°C
2014-08-30 00:00:00 7 knots 215° 22°C
2014-08-30 03:00:00 6 knots 216° 22°C
2014-08-30 06:00:00 6 knots 193° 22°C
2014-08-30 09:00:00 5 knots 227° 23°C
2014-08-30 12:00:00 9 knots 226° 23°C
2014-08-30 15:00:00 10 knots 231° 23°C
2014-08-30 18:00:00 10 knots 231° 23°C
2014-08-30 21:00:00 9 knots 232° 23°C
2014-08-31 00:00:00 9 knots 239° 22°C
2014-08-31 03:00:00 10 knots 254° 22°C
2014-08-31 06:00:00 6 knots 251° 22°C
2014-08-31 09:00:00 7 knots 237° 23°C
2014-08-31 12:00:00 11 knots 236° 23°C
2014-08-31 15:00:00 13 knots 237° 22°C
2014-08-31 18:00:00 11 knots 236° 22°C
2014-08-31 21:00:00 8 knots 222° 22°C

NO_PHOTO

No Photos for this port. Be the first to upload one!